createdAt,value
2022-08-21T00:00:03.327Z,17.2
2022-08-21T00:01:09.509Z,17.1
2022-08-21T00:02:14.695Z,17.2
2022-08-21T00:03:20.869Z,17.1
2022-08-21T00:04:27.036Z,17.2
2022-08-21T00:05:33.196Z,17.2
2022-08-21T00:06:39.364Z,17.2
2022-08-21T00:07:45.547Z,17.2
2022-08-21T00:08:51.701Z,17.2
2022-08-21T00:09:57.875Z,17.2
2022-08-21T00:11:04.045Z,17.3
2022-08-21T00:12:10.205Z,17.2
2022-08-21T00:13:16.372Z,17.2
2022-08-21T00:14:22.544Z,17.2
2022-08-21T00:15:28.685Z,17.2
2022-08-21T00:16:33.885Z,17.1
2022-08-21T00:17:40.047Z,17.1
2022-08-21T00:18:46.202Z,17.1
2022-08-21T00:19:52.364Z,17.1
2022-08-21T00:20:58.525Z,17.2
2022-08-21T00:22:04.686Z,17.2
2022-08-21T00:23:10.854Z,17.2
2022-08-21T00:24:17.019Z,17.1
2022-08-21T00:25:23.165Z,17.1
2022-08-21T00:26:29.323Z,17.1
2022-08-21T00:27:35.493Z,17
2022-08-21T00:28:41.650Z,17.1
2022-08-21T00:29:47.798Z,17.1
2022-08-21T00:30:52.980Z,17.2
2022-08-21T00:31:59.145Z,17.2
2022-08-21T00:33:05.306Z,17.2
2022-08-21T00:34:11.470Z,17.1
2022-08-21T00:35:17.626Z,17
2022-08-21T00:36:23.796Z,17
2022-08-21T00:37:29.966Z,16.9
2022-08-21T00:38:36.126Z,16.8
2022-08-21T00:39:42.301Z,16.8
2022-08-21T00:40:48.488Z,16.7
2022-08-21T00:41:54.646Z,16.7
2022-08-21T00:43:00.820Z,16.6
2022-08-21T00:44:06.983Z,16.6
2022-08-21T00:45:12.182Z,16.6
2022-08-21T00:46:18.357Z,16.5
2022-08-21T00:47:24.520Z,16.5
2022-08-21T00:48:30.701Z,16.4
2022-08-21T00:49:36.864Z,16.4
2022-08-21T00:50:43.034Z,16.4
2022-08-21T00:51:49.195Z,16.4
2022-08-21T00:52:55.376Z,16.4
2022-08-21T00:54:01.544Z,16.4
2022-08-21T00:55:07.708Z,16.4
2022-08-21T00:56:13.889Z,16.3
2022-08-21T00:57:20.064Z,16.3
2022-08-21T00:58:26.238Z,16.2
2022-08-21T00:59:31.427Z,16.2
2022-08-21T01:00:37.613Z,16.2
2022-08-21T01:01:43.776Z,16.1
2022-08-21T01:02:49.958Z,16.1
2022-08-21T01:03:56.130Z,16.1
2022-08-21T01:05:02.338Z,16.2
2022-08-21T01:06:08.489Z,16.2
2022-08-21T01:07:14.659Z,16.3
2022-08-21T01:08:20.841Z,16.3
2022-08-21T01:09:27.024Z,16.4
2022-08-21T01:10:33.200Z,16.4
2022-08-21T01:11:39.369Z,16.3
2022-08-21T01:12:45.555Z,16.3
2022-08-21T01:13:51.724Z,16.4
2022-08-21T01:14:57.915Z,16.3
2022-08-21T01:16:04.092Z,16.3
2022-08-21T01:17:09.284Z,16.3
2022-08-21T01:18:15.466Z,16.4
2022-08-21T01:19:21.636Z,16.3
2022-08-21T01:20:27.819Z,16.3
2022-08-21T01:21:34.003Z,16.3
2022-08-21T01:22:40.181Z,16.4
2022-08-21T01:23:46.343Z,16.4
2022-08-21T01:24:52.522Z,16.4
2022-08-21T01:25:58.698Z,16.4
2022-08-21T01:27:04.870Z,16.3
2022-08-21T01:28:11.054Z,16.2
2022-08-21T01:29:17.224Z,16.2
2022-08-21T01:30:23.407Z,16.2
2022-08-21T01:31:29.582Z,16.1
2022-08-21T01:32:34.770Z,16
2022-08-21T01:33:40.951Z,16.1
2022-08-21T01:34:47.117Z,16.1
2022-08-21T01:35:53.301Z,16.1
2022-08-21T01:36:59.473Z,16.2
2022-08-21T01:38:05.666Z,16.2
2022-08-21T01:39:11.835Z,16.2
2022-08-21T01:40:18.038Z,16.2
2022-08-21T01:41:24.224Z,16.2
2022-08-21T01:42:30.399Z,16.1
2022-08-21T01:43:36.592Z,16.1
2022-08-21T01:44:42.803Z,16.1
2022-08-21T01:45:48.969Z,16.1
2022-08-21T01:46:55.150Z,16.1
2022-08-21T01:48:01.339Z,16.1
2022-08-21T01:49:07.515Z,16.1
2022-08-21T01:50:13.700Z,16.1
2022-08-21T01:51:19.883Z,16
2022-08-21T01:52:26.071Z,16
2022-08-21T01:53:32.247Z,16
2022-08-21T01:54:38.438Z,16
2022-08-21T01:55:44.639Z,15.9
2022-08-21T01:56:50.816Z,15.9
2022-08-21T01:57:56.002Z,15.8
2022-08-21T01:59:02.191Z,15.7
2022-08-21T02:00:08.366Z,15.8
2022-08-21T02:01:14.558Z,15.9
2022-08-21T02:02:20.731Z,15.8
2022-08-21T02:03:26.920Z,15.8
2022-08-21T02:04:33.098Z,15.7
2022-08-21T02:05:39.293Z,15.7
2022-08-21T02:06:45.469Z,15.6
2022-08-21T02:07:51.651Z,15.6
2022-08-21T02:08:57.835Z,15.5
2022-08-21T02:10:04.017Z,15.5
2022-08-21T02:11:10.200Z,15.5
2022-08-21T02:12:16.382Z,15.4
2022-08-21T02:13:22.560Z,15.4
2022-08-21T02:14:28.743Z,15.3
2022-08-21T02:15:34.922Z,15.3
2022-08-21T02:16:41.088Z,15.3
2022-08-21T02:17:47.278Z,15.3
2022-08-21T02:18:53.458Z,15.3
2022-08-21T02:19:59.624Z,15.2
2022-08-21T02:21:05.833Z,15.3
2022-08-21T02:22:11.983Z,15.3
2022-08-21T02:23:18.166Z,15.3
2022-08-21T02:24:24.347Z,15.3
2022-08-21T02:25:30.527Z,15.3
2022-08-21T02:26:36.740Z,15.2
2022-08-21T02:27:42.928Z,15.2
2022-08-21T02:28:49.098Z,15.3
2022-08-21T02:29:55.286Z,15.3
2022-08-21T02:31:01.471Z,15.3
2022-08-21T02:32:06.675Z,15.3
2022-08-21T02:33:12.867Z,15.2
2022-08-21T02:34:19.059Z,15.2
2022-08-21T02:35:25.256Z,15.1
2022-08-21T02:36:31.448Z,15.1
2022-08-21T02:37:37.637Z,15.1
2022-08-21T02:38:43.828Z,15
2022-08-21T02:39:50.041Z,15
2022-08-21T02:40:56.217Z,15
2022-08-21T02:42:02.421Z,14.9
2022-08-21T02:43:08.605Z,14.9
2022-08-21T02:44:14.812Z,14.9
2022-08-21T02:45:21.004Z,14.9
2022-08-21T02:46:26.215Z,14.9
2022-08-21T02:47:32.398Z,14.9
2022-08-21T02:48:38.591Z,14.9
2022-08-21T02:49:44.789Z,14.9
2022-08-21T02:50:50.982Z,14.9
2022-08-21T02:51:57.184Z,14.8
2022-08-21T02:53:03.380Z,14.9
2022-08-21T02:54:09.581Z,14.9
2022-08-21T02:55:15.772Z,14.9
2022-08-21T02:56:21.970Z,14.9
2022-08-21T02:57:28.172Z,14.9
2022-08-21T02:58:34.362Z,14.9
2022-08-21T02:59:40.568Z,14.9
2022-08-21T03:00:46.766Z,14.9
2022-08-21T03:01:52.966Z,14.9
2022-08-21T03:02:59.165Z,14.9
2022-08-21T03:04:05.357Z,14.9
2022-08-21T03:05:11.557Z,14.9
2022-08-21T03:06:17.762Z,14.9
2022-08-21T03:07:23.948Z,14.9
2022-08-21T03:08:30.148Z,15
2022-08-21T03:09:36.348Z,15
2022-08-21T03:10:42.544Z,15
2022-08-21T03:11:48.742Z,15
2022-08-21T03:12:54.947Z,15
2022-08-21T03:14:01.145Z,15
2022-08-21T03:15:07.337Z,15
2022-08-21T03:16:13.534Z,14.9
2022-08-21T03:17:18.741Z,14.9
2022-08-21T03:18:24.943Z,15
2022-08-21T03:19:31.135Z,15
2022-08-21T03:20:37.341Z,15
2022-08-21T03:21:43.537Z,15.1
2022-08-21T03:22:49.736Z,15.1
2022-08-21T03:23:55.927Z,15.1
2022-08-21T03:25:02.124Z,15.2
2022-08-21T03:26:08.324Z,15.2
2022-08-21T03:27:14.515Z,15.2
2022-08-21T03:28:20.702Z,15.2
2022-08-21T03:29:26.913Z,15.1
2022-08-21T03:30:33.094Z,15.1
2022-08-21T03:31:38.304Z,15
2022-08-21T03:32:44.495Z,15
2022-08-21T03:33:50.687Z,14.9
2022-08-21T03:34:56.880Z,14.9
2022-08-21T03:36:03.065Z,14.8
2022-08-21T03:37:09.279Z,14.8
2022-08-21T03:38:15.461Z,14.7
2022-08-21T03:39:21.658Z,14.7
2022-08-21T03:40:27.855Z,14.8
2022-08-21T03:41:34.053Z,14.7
2022-08-21T03:42:40.242Z,14.8
2022-08-21T03:43:46.454Z,14.9
2022-08-21T03:44:52.653Z,14.9
2022-08-21T03:45:57.835Z,14.9
2022-08-21T03:47:04.027Z,14.8
2022-08-21T03:48:10.219Z,14.8
2022-08-21T03:49:16.413Z,14.8
2022-08-21T03:50:22.607Z,14.8
2022-08-21T03:51:28.809Z,14.7
2022-08-21T03:52:34.998Z,14.7
2022-08-21T03:53:41.186Z,14.7
2022-08-21T03:54:47.386Z,14.7
2022-08-21T03:55:53.571Z,14.7
2022-08-21T03:56:59.770Z,14.8
2022-08-21T03:58:05.963Z,14.7
2022-08-21T03:59:12.162Z,14.7
2022-08-21T04:00:18.344Z,14.7
2022-08-21T04:01:23.562Z,14.7
2022-08-21T04:02:29.767Z,14.7
2022-08-21T04:03:35.938Z,14.7
2022-08-21T04:04:42.146Z,14.8
2022-08-21T04:05:48.330Z,14.8
2022-08-21T04:06:54.531Z,14.8
2022-08-21T04:08:00.721Z,14.7
2022-08-21T04:09:06.925Z,14.7
2022-08-21T04:10:13.117Z,14.6
2022-08-21T04:11:19.311Z,14.6
2022-08-21T04:12:25.502Z,14.6
2022-08-21T04:13:31.686Z,14.6
2022-08-21T04:14:37.893Z,14.6
2022-08-21T04:15:44.081Z,14.6
2022-08-21T04:16:50.270Z,14.7
2022-08-21T04:17:55.477Z,14.8
2022-08-21T04:19:01.677Z,14.8
2022-08-21T04:20:07.877Z,14.9
2022-08-21T04:21:14.069Z,14.9
2022-08-21T04:22:20.251Z,14.9
2022-08-21T04:23:26.449Z,15
2022-08-21T04:24:32.636Z,15
2022-08-21T04:25:38.824Z,14.9
2022-08-21T04:26:45.013Z,14.9
2022-08-21T04:27:51.198Z,15
2022-08-21T04:28:57.398Z,15
2022-08-21T04:30:03.582Z,15
2022-08-21T04:31:09.784Z,15
2022-08-21T04:32:14.982Z,15
2022-08-21T04:33:21.183Z,15
2022-08-21T04:34:27.375Z,15
2022-08-21T04:35:33.565Z,15
2022-08-21T04:36:39.758Z,15
2022-08-21T04:37:45.951Z,15
2022-08-21T04:38:52.143Z,15
2022-08-21T04:39:58.338Z,15
2022-08-21T04:41:04.519Z,15
2022-08-21T04:42:10.710Z,15
2022-08-21T04:43:16.892Z,15
2022-08-21T04:44:23.096Z,15
2022-08-21T04:45:29.286Z,15
2022-08-21T04:46:34.492Z,15.1
2022-08-21T04:47:40.677Z,15.1
2022-08-21T04:48:46.870Z,15.2
2022-08-21T04:49:53.071Z,15.2
2022-08-21T04:50:59.248Z,15.2
2022-08-21T04:52:05.448Z,15.2
2022-08-21T04:53:11.633Z,15.2
2022-08-21T04:54:17.821Z,15.2
2022-08-21T04:55:24.013Z,15.2
2022-08-21T04:56:30.208Z,15.2
2022-08-21T04:57:36.390Z,15.2
2022-08-21T04:58:41.587Z,15.2
2022-08-21T04:59:47.778Z,15.2
2022-08-21T05:00:53.967Z,15.2
2022-08-21T05:02:00.156Z,15.2
2022-08-21T05:03:06.342Z,15.2
2022-08-21T05:04:12.522Z,15.2
2022-08-21T05:05:18.718Z,15.2
2022-08-21T05:06:24.898Z,15.3
2022-08-21T05:07:31.084Z,15.3
2022-08-21T05:08:37.276Z,15.3
2022-08-21T05:09:43.467Z,15.3
2022-08-21T05:10:49.654Z,15.3
2022-08-21T05:11:55.842Z,15.3
2022-08-21T05:13:01.050Z,15.3
2022-08-21T05:14:07.227Z,15.4
2022-08-21T05:15:13.432Z,15.4
2022-08-21T05:16:19.606Z,15.5
2022-08-21T05:17:25.783Z,15.5
2022-08-21T05:18:31.977Z,15.5
2022-08-21T05:19:38.151Z,15.5
2022-08-21T05:20:44.334Z,15.5
2022-08-21T05:21:50.518Z,15.5
2022-08-21T05:22:56.702Z,15.5
2022-08-21T05:24:02.889Z,15.5
2022-08-21T05:25:09.077Z,15.6
2022-08-21T05:26:15.247Z,15.6
2022-08-21T05:27:20.458Z,15.6
2022-08-21T05:28:26.632Z,15.6
2022-08-21T05:29:32.818Z,15.6
2022-08-21T05:30:39.005Z,15.7
2022-08-21T05:31:45.169Z,15.7
2022-08-21T05:32:51.361Z,15.8
2022-08-21T05:33:57.543Z,15.8
2022-08-21T05:35:03.730Z,15.9
2022-08-21T05:36:09.905Z,15.9
2022-08-21T05:37:16.088Z,15.9
2022-08-21T05:38:22.264Z,16
2022-08-21T05:39:28.446Z,16
2022-08-21T05:40:34.615Z,16.1
2022-08-21T05:41:39.810Z,16.2
2022-08-21T05:42:45.987Z,16.3
2022-08-21T05:43:52.151Z,16.4
2022-08-21T05:44:58.329Z,16.5
2022-08-21T05:46:04.491Z,16.5
2022-08-21T05:47:10.667Z,16.4
2022-08-21T05:48:16.838Z,16.5
2022-08-21T05:49:23.021Z,16.6
2022-08-21T05:50:29.175Z,16.7
2022-08-21T05:51:35.339Z,16.8
2022-08-21T05:52:41.515Z,16.9
2022-08-21T05:53:47.681Z,17
2022-08-21T05:54:53.844Z,17.1
2022-08-21T05:55:59.027Z,17.2
2022-08-21T05:57:05.179Z,17.2
2022-08-21T05:58:11.342Z,17.2
2022-08-21T05:59:17.496Z,17.4
2022-08-21T06:00:23.660Z,17.5
2022-08-21T06:01:29.818Z,17.7
2022-08-21T06:02:35.981Z,17.7
2022-08-21T06:03:42.140Z,17.7
2022-08-21T06:04:48.283Z,17.8
2022-08-21T06:05:54.445Z,17.8
2022-08-21T06:07:00.594Z,17.9
2022-08-21T06:08:06.742Z,18
2022-08-21T06:09:12.887Z,18.2
2022-08-21T06:10:18.049Z,18.2
2022-08-21T06:11:24.206Z,18.4
2022-08-21T06:12:30.354Z,18.5
2022-08-21T06:13:36.511Z,18.4
2022-08-21T06:14:42.662Z,18.3
2022-08-21T06:15:48.813Z,18.6
2022-08-21T06:16:54.945Z,18.7
2022-08-21T06:18:01.096Z,18.7
2022-08-21T06:19:07.233Z,18.7
2022-08-21T06:20:13.368Z,18.9
2022-08-21T06:21:19.507Z,19
2022-08-21T06:22:25.632Z,19
2022-08-21T06:23:31.762Z,19.1
2022-08-21T06:24:36.912Z,19.3
2022-08-21T06:25:43.048Z,19.4
2022-08-21T06:26:49.181Z,19.5
2022-08-21T06:27:55.318Z,19.4
2022-08-21T06:29:01.437Z,19.4
2022-08-21T06:30:07.582Z,19.5
2022-08-21T06:31:13.685Z,19.5
2022-08-21T06:32:19.803Z,19.4
2022-08-21T06:33:25.921Z,19.6
2022-08-21T06:34:32.032Z,19.7
2022-08-21T06:35:38.167Z,19.7
2022-08-21T06:36:44.267Z,19.9
2022-08-21T06:37:50.376Z,19.9
2022-08-21T06:38:56.492Z,19.7
2022-08-21T06:40:02.591Z,20.1
2022-08-21T06:41:08.697Z,20.2
2022-08-21T06:42:14.808Z,20.1
2022-08-21T06:43:20.903Z,20.3
2022-08-21T06:44:27.012Z,20.5
2022-08-21T06:45:33.107Z,20.6
2022-08-21T06:46:39.204Z,20.4
2022-08-21T06:47:45.292Z,20.1
2022-08-21T06:48:51.386Z,20.2
2022-08-21T06:49:57.488Z,20.2
2022-08-21T06:51:03.586Z,20.5
2022-08-21T06:52:09.676Z,21
2022-08-21T06:53:15.766Z,21.5
2022-08-21T06:54:21.844Z,21.5
2022-08-21T06:55:27.934Z,21.4
2022-08-21T06:56:34.005Z,21.2
2022-08-21T06:57:40.094Z,21.3
2022-08-21T06:58:46.181Z,21.2
2022-08-21T06:59:52.261Z,21
2022-08-21T07:00:58.347Z,20.7
2022-08-21T07:02:04.439Z,20.7
2022-08-21T07:03:10.498Z,20.6
2022-08-21T07:04:16.580Z,20.4
2022-08-21T07:05:22.738Z,20.5
2022-08-21T07:06:28.882Z,20.5
2022-08-21T07:07:35.036Z,20.5
2022-08-21T07:08:41.207Z,20.4
2022-08-21T07:09:47.352Z,20.5
2022-08-21T07:10:53.506Z,20.5
2022-08-21T07:11:59.667Z,20.7
2022-08-21T07:13:05.840Z,20.9
2022-08-21T07:14:11.983Z,20.9
2022-08-21T07:15:18.146Z,20.8
2022-08-21T07:16:24.298Z,21.1
2022-08-21T07:17:30.474Z,21
2022-08-21T07:18:36.617Z,21.1
2022-08-21T07:19:42.905Z,21
2022-08-21T07:20:48.209Z,20.7
2022-08-21T07:21:54.388Z,21
2022-08-21T07:23:00.536Z,21.2
2022-08-21T07:24:06.688Z,21.5
2022-08-21T07:25:12.844Z,21.7
2022-08-21T07:26:18.997Z,21.8
2022-08-21T07:27:25.153Z,21.5
2022-08-21T07:28:31.306Z,21
2022-08-21T07:29:37.464Z,21.1
2022-08-21T07:30:42.621Z,21.5
2022-08-21T07:31:48.702Z,21.8
2022-08-21T07:32:54.784Z,21.8
2022-08-21T07:34:00.852Z,21.9
2022-08-21T07:35:06.922Z,22.1
2022-08-21T07:36:12.992Z,22
2022-08-21T07:37:19.080Z,22
2022-08-21T07:38:25.135Z,21.7
2022-08-21T07:39:31.209Z,21.9
2022-08-21T07:40:37.262Z,21.6
2022-08-21T07:41:43.320Z,21.5
2022-08-21T07:42:49.396Z,21.7
2022-08-21T07:43:55.463Z,22
2022-08-21T07:45:01.528Z,22.5
2022-08-21T07:46:07.601Z,22.7
2022-08-21T07:47:13.659Z,22.7
2022-08-21T07:48:19.722Z,22.7
2022-08-21T07:49:25.775Z,22.7
2022-08-21T07:50:31.848Z,22.9
2022-08-21T07:51:37.902Z,23
2022-08-21T07:52:43.986Z,23.2
2022-08-21T07:53:50.015Z,23.3
2022-08-21T07:54:56.071Z,23.4
2022-08-21T07:56:02.130Z,23.4
2022-08-21T07:57:08.185Z,23.3
2022-08-21T07:58:14.321Z,23.5
2022-08-21T07:59:20.448Z,22.8
2022-08-21T08:00:26.574Z,22.9
2022-08-21T08:01:32.702Z,23.4
2022-08-21T08:02:38.824Z,23.3
2022-08-21T08:03:44.955Z,23.4
2022-08-21T08:04:51.082Z,23.6
2022-08-21T08:05:57.203Z,23.9
2022-08-21T08:07:03.324Z,23.9
2022-08-21T08:08:09.443Z,24.3
2022-08-21T08:09:15.564Z,24
2022-08-21T08:10:21.670Z,24.3
2022-08-21T08:11:27.773Z,25
2022-08-21T08:12:34.007Z,24.5
2022-08-21T08:13:40.224Z,24.1
2022-08-21T08:14:46.442Z,23.9
2022-08-21T08:15:52.669Z,24.1
2022-08-21T08:16:57.843Z,23.9
2022-08-21T08:18:03.849Z,24.1
2022-08-21T08:19:09.877Z,24.3
2022-08-21T08:20:15.887Z,24.9
2022-08-21T08:21:21.891Z,24.5
2022-08-21T08:22:27.904Z,24.3
2022-08-21T08:23:33.924Z,24.9
2022-08-21T08:24:39.921Z,24.3
2022-08-21T08:25:45.929Z,24
2022-08-21T08:26:51.951Z,23.7
2022-08-21T08:27:57.954Z,23.7
2022-08-21T08:29:03.968Z,23.6
2022-08-21T08:30:09.979Z,24.1
2022-08-21T08:31:15.995Z,24.6
2022-08-21T08:32:22.009Z,24.9
2022-08-21T08:33:28.019Z,24.4
2022-08-21T08:34:34.031Z,23.6
2022-08-21T08:35:40.061Z,23.8
2022-08-21T08:36:46.069Z,24
2022-08-21T08:37:52.103Z,24.4
2022-08-21T08:38:58.112Z,24.6
2022-08-21T08:40:04.140Z,24.8
2022-08-21T08:41:10.149Z,24.4
2022-08-21T08:42:16.165Z,24.3
2022-08-21T08:43:22.195Z,24.2
2022-08-21T08:44:28.291Z,24.4
2022-08-21T08:45:34.410Z,24.6
2022-08-21T08:46:40.494Z,24.9
2022-08-21T08:47:46.595Z,25.3
2022-08-21T08:48:52.701Z,26.1
2022-08-21T08:49:58.781Z,26.2
2022-08-21T08:51:04.868Z,26.6
2022-08-21T08:52:10.964Z,27.2
2022-08-21T08:53:17.045Z,26.9
2022-08-21T08:54:23.122Z,27.6
2022-08-21T08:55:29.214Z,26.8
2022-08-21T08:56:35.296Z,26.2
2022-08-21T08:57:41.368Z,26.2
2022-08-21T08:58:47.563Z,26.6
2022-08-21T08:59:53.750Z,27.5
2022-08-21T09:00:59.941Z,28.4
2022-08-21T09:02:06.115Z,27.7
2022-08-21T09:03:12.313Z,27.4
2022-08-21T09:04:18.490Z,28.1
2022-08-21T09:05:24.676Z,28.6
2022-08-21T09:06:30.870Z,28.3
2022-08-21T09:07:37.028Z,26.3
2022-08-21T09:08:43.192Z,25.8
2022-08-21T09:09:49.364Z,26.3
2022-08-21T09:10:55.544Z,27
2022-08-21T09:12:01.712Z,27.7
2022-08-21T09:14:58.491Z,26.9
2022-08-21T09:16:03.814Z,27.4
2022-08-21T09:17:09.772Z,27
2022-08-21T09:18:15.767Z,26.4
2022-08-21T09:19:21.708Z,26.3
2022-08-21T09:20:27.677Z,26.5
2022-08-21T09:21:33.660Z,26.7
2022-08-21T09:22:39.631Z,26.6
2022-08-21T09:23:45.617Z,27
2022-08-21T09:24:51.606Z,27.1
2022-08-21T09:25:57.589Z,26.5
2022-08-21T09:27:03.588Z,25.7
2022-08-21T09:28:09.559Z,25.1
2022-08-21T09:29:15.548Z,25
2022-08-21T09:30:21.546Z,24.6
2022-08-21T09:31:27.531Z,24.9
2022-08-21T09:32:33.517Z,25.1
2022-08-21T09:33:39.509Z,25.4
2022-08-21T09:34:45.498Z,25.5
2022-08-21T09:35:51.494Z,25.3
2022-08-21T09:36:57.491Z,25
2022-08-21T09:38:03.488Z,25.1
2022-08-21T09:39:09.491Z,25.6
2022-08-21T09:40:15.489Z,25.8
2022-08-21T09:41:21.481Z,25.6
2022-08-21T09:42:27.479Z,25.9
2022-08-21T09:43:33.574Z,26.4
2022-08-21T09:44:39.648Z,26.4
2022-08-21T09:45:45.727Z,26
2022-08-21T09:46:51.807Z,26.4
2022-08-21T09:47:57.876Z,26.4
2022-08-21T09:49:03.954Z,26.6
2022-08-21T09:50:10.045Z,26.3
2022-08-21T09:51:16.126Z,26.8
2022-08-21T09:52:22.203Z,26.7
2022-08-21T09:53:28.281Z,27.3
2022-08-21T09:54:34.354Z,28.1
2022-08-21T09:55:40.443Z,29
2022-08-21T09:56:46.507Z,29
2022-08-21T09:57:52.712Z,28
2022-08-21T09:58:58.923Z,27.9
2022-08-21T10:00:05.115Z,27.5
2022-08-21T10:01:11.311Z,27.3
2022-08-21T10:02:17.516Z,26.7
2022-08-21T10:03:23.712Z,27.1
2022-08-21T10:04:29.920Z,27.3
2022-08-21T10:05:36.123Z,27
2022-08-21T10:06:42.323Z,26.6
2022-08-21T10:07:48.527Z,26.5
2022-08-21T10:08:54.745Z,26.3
2022-08-21T10:10:00.947Z,25.8
2022-08-21T10:11:07.160Z,25.2
2022-08-21T10:13:42.068Z,25
2022-08-21T10:14:47.409Z,25.4
2022-08-21T10:15:53.449Z,25.6
2022-08-21T10:16:59.434Z,25.8
2022-08-21T10:18:05.455Z,25.5
2022-08-21T10:19:11.458Z,25.5
2022-08-21T10:20:17.489Z,25.4
2022-08-21T10:21:23.503Z,25
2022-08-21T10:22:29.528Z,24.6
2022-08-21T10:23:35.544Z,24.5
2022-08-21T10:24:41.573Z,24.6
2022-08-21T10:25:47.593Z,24.9
2022-08-21T10:26:53.608Z,25.3
2022-08-21T10:27:59.637Z,25.4
2022-08-21T10:29:05.661Z,25.6
2022-08-21T10:30:11.699Z,25.8
2022-08-21T10:31:17.721Z,25.9
2022-08-21T10:32:23.749Z,26.3
2022-08-21T10:33:29.793Z,26.7
2022-08-21T10:34:35.824Z,27
2022-08-21T10:35:41.852Z,26.5
2022-08-21T10:36:47.880Z,26.5
2022-08-21T10:37:53.899Z,26.3
2022-08-21T10:38:59.933Z,26
2022-08-21T10:40:05.963Z,26.1
2022-08-21T10:41:11.995Z,26.4
2022-08-21T10:42:18.101Z,26.8
2022-08-21T10:43:24.208Z,27
2022-08-21T10:44:30.308Z,27.7
2022-08-21T10:45:36.416Z,28.8
2022-08-21T10:46:42.525Z,28.4
2022-08-21T10:47:48.630Z,28.2
2022-08-21T10:48:54.742Z,28.3
2022-08-21T10:50:00.844Z,27.6
2022-08-21T10:51:06.948Z,27.2
2022-08-21T10:52:13.060Z,27.3
2022-08-21T10:53:19.155Z,27.9
2022-08-21T10:54:25.265Z,28.4
2022-08-21T10:55:31.361Z,29
2022-08-21T10:56:37.581Z,28.9
2022-08-21T10:57:43.796Z,29
2022-08-21T10:58:50.022Z,28.4
2022-08-21T10:59:56.235Z,29
2022-08-21T11:01:02.459Z,29.1
2022-08-21T11:02:08.677Z,28.9
2022-08-21T11:03:14.901Z,29.4
2022-08-21T11:04:21.110Z,30.3
2022-08-21T11:05:27.322Z,30.2
2022-08-21T11:06:33.553Z,30.5
2022-08-21T11:07:39.758Z,29.9
2022-08-21T11:08:45.971Z,29.6
2022-08-21T11:09:52.180Z,29.8
2022-08-21T11:12:49.084Z,29.4
2022-08-21T11:13:54.408Z,29
2022-08-21T11:15:00.418Z,27.7
2022-08-21T11:16:06.429Z,27.5
2022-08-21T11:17:12.450Z,27.8
2022-08-21T11:18:18.461Z,27.1
2022-08-21T11:19:24.465Z,27.3
2022-08-21T11:20:30.479Z,27.3
2022-08-21T11:21:36.493Z,27.5
2022-08-21T11:22:42.514Z,27.3
2022-08-21T11:23:48.527Z,27.3
2022-08-21T11:24:54.538Z,27.8
2022-08-21T11:26:00.547Z,28.5
2022-08-21T11:27:06.577Z,27.8
2022-08-21T11:28:12.580Z,27.9
2022-08-21T11:29:18.579Z,27.8
2022-08-21T11:30:24.592Z,27.9
2022-08-21T11:31:30.609Z,28.2
2022-08-21T11:32:36.625Z,27.2
2022-08-21T11:33:42.642Z,27.8
2022-08-21T11:34:48.657Z,27.5
2022-08-21T11:35:54.676Z,26.5
2022-08-21T11:37:00.702Z,26.8
2022-08-21T11:38:06.711Z,27.2
2022-08-21T11:39:12.741Z,27.7
2022-08-21T11:40:18.779Z,27.4
2022-08-21T11:41:24.853Z,27.2
2022-08-21T11:42:30.956Z,26.8
2022-08-21T11:43:37.050Z,27.2
2022-08-21T11:44:43.145Z,28.1
2022-08-21T11:45:49.245Z,28.2
2022-08-21T11:46:55.347Z,27.7
2022-08-21T11:48:01.726Z,27
2022-08-21T11:49:07.589Z,26.3
2022-08-21T11:50:13.641Z,26
2022-08-21T11:51:19.751Z,25.5
2022-08-21T11:52:25.850Z,25.6
2022-08-21T11:53:31.942Z,25.8
2022-08-21T11:54:38.044Z,26.2
2022-08-21T11:55:44.274Z,27.3
2022-08-21T11:56:50.490Z,26.9
2022-08-21T11:57:56.713Z,26.9
2022-08-21T11:59:02.946Z,27.3
2022-08-21T12:00:08.126Z,27.3
2022-08-21T12:01:14.150Z,27.1
2022-08-21T12:02:20.176Z,27.1
2022-08-21T12:03:26.205Z,27.1
2022-08-21T12:04:32.219Z,26.6
2022-08-21T12:05:38.263Z,26.8
2022-08-21T12:06:44.286Z,26.9
2022-08-21T12:07:50.312Z,27
2022-08-21T12:08:56.329Z,27.3
2022-08-21T12:10:02.345Z,27.4
2022-08-21T12:11:08.369Z,26.9
2022-08-21T12:12:14.388Z,26.3
2022-08-21T12:13:20.422Z,26
2022-08-21T12:14:26.434Z,26.2
2022-08-21T12:15:32.468Z,27
2022-08-21T12:16:38.485Z,27.9
2022-08-21T12:17:44.506Z,28
2022-08-21T12:18:50.523Z,27.5
2022-08-21T12:19:56.537Z,27.2
2022-08-21T12:21:02.558Z,27.1
2022-08-21T12:22:08.586Z,26.9
2022-08-21T12:23:14.613Z,26.9
2022-08-21T12:24:20.636Z,26.7
2022-08-21T12:25:26.658Z,26.6
2022-08-21T12:26:32.684Z,26.4
2022-08-21T12:27:38.785Z,26.9
2022-08-21T12:28:44.888Z,27.5
2022-08-21T12:29:50.977Z,28.5
2022-08-21T12:30:57.094Z,28.1
2022-08-21T12:32:03.181Z,27.5
2022-08-21T12:33:09.283Z,26.6
2022-08-21T12:34:15.373Z,25.9
2022-08-21T12:35:21.479Z,25.3
2022-08-21T12:36:27.571Z,25.4
2022-08-21T12:37:33.679Z,25.6
2022-08-21T12:38:39.783Z,25.6
2022-08-21T12:39:45.891Z,25.5
2022-08-21T12:40:51.986Z,25.2
2022-08-21T12:41:58.214Z,25
2022-08-21T12:43:03.403Z,25.1
2022-08-21T12:44:09.431Z,25.2
2022-08-21T12:45:15.469Z,25.4
2022-08-21T12:46:21.487Z,25.6
2022-08-21T12:47:27.522Z,26
2022-08-21T12:48:33.555Z,26.6
2022-08-21T12:49:39.582Z,26.9
2022-08-21T12:50:45.608Z,27.4
2022-08-21T12:51:51.642Z,28
2022-08-21T12:52:57.674Z,28.9
2022-08-21T12:54:03.705Z,29.7
2022-08-21T12:55:09.735Z,30.3
2022-08-21T12:56:15.773Z,30
2022-08-21T12:57:21.783Z,29.3
2022-08-21T12:58:27.811Z,28
2022-08-21T12:59:33.868Z,28.3
2022-08-21T13:00:39.845Z,28.8
2022-08-21T13:01:45.853Z,28.7
2022-08-21T13:02:51.875Z,28.1
2022-08-21T13:03:57.879Z,28.3
2022-08-21T13:05:03.891Z,28.4
2022-08-21T13:06:09.900Z,27.9
2022-08-21T13:07:15.917Z,27.8
2022-08-21T13:08:21.940Z,28.3
2022-08-21T13:09:27.936Z,28.3
2022-08-21T13:10:34.019Z,28.4
2022-08-21T13:11:40.106Z,28.8
2022-08-21T13:12:46.200Z,29.4
2022-08-21T13:13:52.295Z,29.9
2022-08-21T13:14:58.371Z,30.4
2022-08-21T13:16:04.465Z,30.8
2022-08-21T13:17:10.542Z,29.7
2022-08-21T13:18:16.615Z,29.4
2022-08-21T13:19:22.698Z,29.4
2022-08-21T13:20:28.789Z,29.4
2022-08-21T13:21:34.875Z,29.3
2022-08-21T13:22:40.954Z,29.1
2022-08-21T13:23:47.030Z,29.2
2022-08-21T13:24:53.236Z,29.3
2022-08-21T13:25:59.444Z,28.9
2022-08-21T13:27:05.658Z,28.4
2022-08-21T13:28:11.848Z,28.9
2022-08-21T13:29:18.063Z,29.3
2022-08-21T13:30:24.258Z,29.6
2022-08-21T13:31:30.465Z,29.4
2022-08-21T13:32:36.672Z,29.7
2022-08-21T13:33:42.870Z,29.8
2022-08-21T13:34:49.076Z,29.6
2022-08-21T13:35:55.279Z,30.1
2022-08-21T13:37:01.473Z,29.8
2022-08-21T13:38:07.676Z,29.9
2022-08-21T13:41:04.514Z,29.6
2022-08-21T13:42:09.837Z,30.2
2022-08-21T13:43:15.832Z,30.7
2022-08-21T13:44:21.817Z,30.4
2022-08-21T13:45:27.814Z,30.6
2022-08-21T13:46:33.800Z,30.6
2022-08-21T13:47:39.802Z,30.6
2022-08-21T13:48:45.788Z,30.7
2022-08-21T13:49:51.799Z,29.4
2022-08-21T13:50:57.780Z,28.8
2022-08-21T13:52:03.779Z,28.5
2022-08-21T13:53:09.765Z,28.4
2022-08-21T13:54:15.768Z,27.9
2022-08-21T13:55:21.768Z,27.7
2022-08-21T13:56:27.761Z,28.1
2022-08-21T13:57:33.763Z,28.4
2022-08-21T13:58:39.777Z,28.4
2022-08-21T13:59:45.766Z,28.7
2022-08-21T14:00:51.751Z,29.1
2022-08-21T14:01:57.763Z,28.6
2022-08-21T14:03:03.759Z,28.8
2022-08-21T14:04:09.758Z,28.6
2022-08-21T14:05:15.761Z,27.6
2022-08-21T14:06:21.748Z,27.2
2022-08-21T14:07:27.750Z,26.8
2022-08-21T14:08:33.757Z,26.2
2022-08-21T14:09:39.830Z,26
2022-08-21T14:10:45.922Z,25.8
2022-08-21T14:11:52.006Z,26.2
2022-08-21T14:12:58.093Z,25.9
2022-08-21T14:14:04.178Z,25.8
2022-08-21T14:15:10.271Z,25.8
2022-08-21T14:16:16.365Z,25.8
2022-08-21T14:17:22.452Z,25.8
2022-08-21T14:18:28.551Z,25.9
2022-08-21T14:19:34.651Z,25.8
2022-08-21T14:20:40.742Z,25.9
2022-08-21T14:21:46.894Z,26.1
2022-08-21T14:22:52.948Z,26.8
2022-08-21T14:23:59.186Z,26.6
2022-08-21T14:25:05.395Z,26.4
2022-08-21T14:26:11.629Z,26.3
2022-08-21T14:27:16.810Z,26.3
2022-08-21T14:28:22.839Z,26.1
2022-08-21T14:29:28.884Z,26.4
2022-08-21T14:30:34.911Z,26.4
2022-08-21T14:31:40.934Z,26.2
2022-08-21T14:32:46.965Z,26.1
2022-08-21T14:33:52.992Z,26
2022-08-21T14:34:59.027Z,26.5
2022-08-21T14:36:05.053Z,27.2
2022-08-21T14:37:11.074Z,26.8
2022-08-21T14:38:17.128Z,26.2
2022-08-21T14:39:23.153Z,25.9
2022-08-21T14:40:29.185Z,25.6
2022-08-21T14:41:35.223Z,25.9
2022-08-21T14:42:41.267Z,26.4
2022-08-21T14:43:47.303Z,26.2
2022-08-21T14:44:53.335Z,26.1
2022-08-21T14:45:59.375Z,26
2022-08-21T14:47:05.427Z,25.6
2022-08-21T14:48:11.444Z,25.6
2022-08-21T14:49:17.487Z,25.5
2022-08-21T14:50:23.520Z,25.3
2022-08-21T14:51:29.566Z,25.3
2022-08-21T14:52:35.627Z,25.8